sensor_id;sensor_type;location;lat;lon;timestamp;temperature;humidity
64843;DHT22;51310;52.198;5.422;2023-04-24T00:00:04;8.80;99.90
64843;DHT22;51310;52.198;5.422;2023-04-24T00:02:31;8.80;99.90
64843;DHT22;51310;52.198;5.422;2023-04-24T00:04:58;8.90;99.90
64843;DHT22;51310;52.198;5.422;2023-04-24T00:07:28;8.90;99.90
64843;DHT22;51310;52.198;5.422;2023-04-24T00:09:55;8.90;99.90
64843;DHT22;51310;52.198;5.422;2023-04-24T00:12:20;8.90;99.90
64843;DHT22;51310;52.198;5.422;2023-04-24T00:14:46;8.90;99.90
64843;DHT22;51310;52.198;5.422;2023-04-24T00:17:12;8.90;99.90
64843;DHT22;51310;52.198;5.422;2023-04-24T00:19:38;8.90;99.90
64843;DHT22;51310;52.198;5.422;2023-04-24T00:22:04;8.90;99.90
64843;DHT22;51310;52.198;5.422;2023-04-24T00:24:30;8.80;99.90
64843;DHT22;51310;52.198;5.422;2023-04-24T00:26:56;8.80;99.90
64843;DHT22;51310;52.198;5.422;2023-04-24T00:29:22;8.80;99.90
64843;DHT22;51310;52.198;5.422;2023-04-24T00:31:48;8.80;99.90
64843;DHT22;51310;52.198;5.422;2023-04-24T00:34:14;8.80;99.90
64843;DHT22;51310;52.198;5.422;2023-04-24T00:36:39;8.80;99.90
64843;DHT22;51310;52.198;5.422;2023-04-24T00:39:05;8.80;99.90
64843;DHT22;51310;52.198;5.422;2023-04-24T00:41:34;8.70;99.90
64843;DHT22;51310;52.198;5.422;2023-04-24T00:44:00;8.70;99.90
64843;DHT22;51310;52.198;5.422;2023-04-24T00:46:26;8.60;99.90
64843;DHT22;51310;52.198;5.422;2023-04-24T00:48:52;8.60;99.90
64843;DHT22;51310;52.198;5.422;2023-04-24T00:51:18;8.60;99.90
64843;DHT22;51310;52.198;5.422;2023-04-24T00:53:43;8.60;99.90
64843;DHT22;51310;52.198;5.422;2023-04-24T00:56:10;8.60;99.90
64843;DHT22;51310;52.198;5.422;2023-04-24T00:58:36;8.60;99.90
64843;DHT22;51310;52.198;5.422;2023-04-24T01:01:02;8.60;99.90
64843;DHT22;51310;52.198;5.422;2023-04-24T01:03:32;8.60;99.90
64843;DHT22;51310;52.198;5.422;2023-04-24T01:05:58;8.60;99.90
64843;DHT22;51310;52.198;5.422;2023-04-24T01:08:26;8.50;99.90
64843;DHT22;51310;52.198;5.422;2023-04-24T01:10:54;8.50;99.90
64843;DHT22;51310;52.198;5.422;2023-04-24T01:13:22;8.50;99.90
64843;DHT22;51310;52.198;5.422;2023-04-24T01:15:48;8.50;99.90
64843;DHT22;51310;52.198;5.422;2023-04-24T01:18:14;8.50;99.90
64843;DHT22;51310;52.198;5.422;2023-04-24T01:20:42;8.50;99.90
64843;DHT22;51310;52.198;5.422;2023-04-24T01:23:09;8.50;99.90
64843;DHT22;51310;52.198;5.422;2023-04-24T01:25:36;8.60;99.90
64843;DHT22;51310;52.198;5.422;2023-04-24T01:28:03;8.60;99.90
64843;DHT22;51310;52.198;5.422;2023-04-24T01:30:29;8.60;99.90
64843;DHT22;51310;52.198;5.422;2023-04-24T01:32:56;8.60;99.90
64843;DHT22;51310;52.198;5.422;2023-04-24T01:35:22;8.60;99.90
64843;DHT22;51310;52.198;5.422;2023-04-24T01:37:48;8.60;99.90
64843;DHT22;51310;52.198;5.422;2023-04-24T01:40:13;8.60;99.90
64843;DHT22;51310;52.198;5.422;2023-04-24T01:42:41;8.60;99.90
64843;DHT22;51310;52.198;5.422;2023-04-24T01:45:10;8.60;99.90
64843;DHT22;51310;52.198;5.422;2023-04-24T01:47:38;8.60;99.90
64843;DHT22;51310;52.198;5.422;2023-04-24T01:50:05;8.60;99.90
64843;DHT22;51310;52.198;5.422;2023-04-24T01:52:31;8.60;99.90
64843;DHT22;51310;52.198;5.422;2023-04-24T01:55:02;8.60;99.90
64843;DHT22;51310;52.198;5.422;2023-04-24T01:57:30;8.60;99.90
64843;DHT22;51310;52.198;5.422;2023-04-24T01:59:57;8.60;99.90
64843;DHT22;51310;52.198;5.422;2023-04-24T02:02:23;8.60;99.90
64843;DHT22;51310;52.198;5.422;2023-04-24T02:04:50;8.60;99.90
64843;DHT22;51310;52.198;5.422;2023-04-24T02:07:16;8.60;99.90
64843;DHT22;51310;52.198;5.422;2023-04-24T02:09:41;8.60;99.90
64843;DHT22;51310;52.198;5.422;2023-04-24T02:12:07;8.60;99.90
64843;DHT22;51310;52.198;5.422;2023-04-24T02:14:33;8.60;99.90
64843;DHT22;51310;52.198;5.422;2023-04-24T02:16:59;8.60;99.90
64843;DHT22;51310;52.198;5.422;2023-04-24T02:19:26;8.60;99.90
64843;DHT22;51310;52.198;5.422;2023-04-24T02:21:51;8.50;99.90
64843;DHT22;51310;52.198;5.422;2023-04-24T02:24:17;8.50;99.90
64843;DHT22;51310;52.198;5.422;2023-04-24T02:26:43;8.60;99.90
64843;DHT22;51310;52.198;5.422;2023-04-24T02:29:09;8.60;99.90
64843;DHT22;51310;52.198;5.422;2023-04-24T02:31:34;8.60;99.90
64843;DHT22;51310;52.198;5.422;2023-04-24T02:34:00;8.60;99.90
64843;DHT22;51310;52.198;5.422;2023-04-24T02:36:26;8.60;99.90
64843;DHT22;51310;52.198;5.422;2023-04-24T02:38:52;8.50;99.90
64843;DHT22;51310;52.198;5.422;2023-04-24T02:41:17;8.60;99.90
64843;DHT22;51310;52.198;5.422;2023-04-24T02:43:43;8.50;99.90
64843;DHT22;51310;52.198;5.422;2023-04-24T02:46:09;8.50;99.90
64843;DHT22;51310;52.198;5.422;2023-04-24T02:48:34;8.50;99.90
64843;DHT22;51310;52.198;5.422;2023-04-24T02:51:00;8.50;99.90
64843;DHT22;51310;52.198;5.422;2023-04-24T02:53:26;8.50;99.90
64843;DHT22;51310;52.198;5.422;2023-04-24T02:55:51;8.50;99.90
64843;DHT22;51310;52.198;5.422;2023-04-24T02:58:17;8.50;99.90
64843;DHT22;51310;52.198;5.422;2023-04-24T03:00:45;8.50;99.90
64843;DHT22;51310;52.198;5.422;2023-04-24T03:03:12;8.50;99.90
64843;DHT22;51310;52.198;5.422;2023-04-24T03:05:38;8.50;99.90
64843;DHT22;51310;52.198;5.422;2023-04-24T03:08:04;8.50;99.90
64843;DHT22;51310;52.198;5.422;2023-04-24T03:10:30;8.50;99.90
64843;DHT22;51310;52.198;5.422;2023-04-24T03:12:55;8.50;99.90
64843;DHT22;51310;52.198;5.422;2023-04-24T03:15:21;8.40;99.90
64843;DHT22;51310;52.198;5.422;2023-04-24T03:17:47;8.40;99.90
64843;DHT22;51310;52.198;5.422;2023-04-24T03:20:13;8.40;99.90
64843;DHT22;51310;52.198;5.422;2023-04-24T03:22:39;8.40;99.90
64843;DHT22;51310;52.198;5.422;2023-04-24T03:25:05;8.40;99.90
64843;DHT22;51310;52.198;5.422;2023-04-24T03:27:33;8.40;99.90
64843;DHT22;51310;52.198;5.422;2023-04-24T03:29:59;8.40;99.90
64843;DHT22;51310;52.198;5.422;2023-04-24T03:32:26;8.30;99.90
64843;DHT22;51310;52.198;5.422;2023-04-24T03:34:51;8.30;99.90
64843;DHT22;51310;52.198;5.422;2023-04-24T03:37:17;8.30;99.90
64843;DHT22;51310;52.198;5.422;2023-04-24T03:39:43;8.30;99.90
64843;DHT22;51310;52.198;5.422;2023-04-24T03:42:09;8.30;99.90
64843;DHT22;51310;52.198;5.422;2023-04-24T03:44:35;8.30;99.90
64843;DHT22;51310;52.198;5.422;2023-04-24T03:47:01;8.30;99.90
64843;DHT22;51310;52.198;5.422;2023-04-24T03:49:27;8.30;99.90
64843;DHT22;51310;52.198;5.422;2023-04-24T03:51:53;8.30;99.90
64843;DHT22;51310;52.198;5.422;2023-04-24T03:54:19;8.30;99.90
64843;DHT22;51310;52.198;5.422;2023-04-24T03:56:45;8.30;99.90
64843;DHT22;51310;52.198;5.422;2023-04-24T03:59:11;8.30;99.90
64843;DHT22;51310;52.198;5.422;2023-04-24T04:01:37;8.30;99.90
64843;DHT22;51310;52.198;5.422;2023-04-24T04:04:03;8.30;99.90
64843;DHT22;51310;52.198;5.422;2023-04-24T04:06:29;8.30;99.90
64843;DHT22;51310;52.198;5.422;2023-04-24T04:08:58;8.30;99.90
64843;DHT22;51310;52.198;5.422;2023-04-24T04:11:25;8.30;99.90
64843;DHT22;51310;52.198;5.422;2023-04-24T04:13:51;8.30;99.90
64843;DHT22;51310;52.198;5.422;2023-04-24T04:16:16;8.30;99.90
64843;DHT22;51310;52.198;5.422;2023-04-24T04:18:43;8.20;99.90
64843;DHT22;51310;52.198;5.422;2023-04-24T04:21:09;8.20;99.90
64843;DHT22;51310;52.198;5.422;2023-04-24T04:23:35;8.30;99.90
64843;DHT22;51310;52.198;5.422;2023-04-24T04:26:01;8.20;99.90
64843;DHT22;51310;52.198;5.422;2023-04-24T04:28:28;8.20;99.90
64843;DHT22;51310;52.198;5.422;2023-04-24T04:30:56;8.20;99.90
64843;DHT22;51310;52.198;5.422;2023-04-24T04:33:26;8.20;99.90
64843;DHT22;51310;52.198;5.422;2023-04-24T04:35:52;8.20;99.90
64843;DHT22;51310;52.198;5.422;2023-04-24T04:38:19;8.20;99.90
64843;DHT22;51310;52.198;5.422;2023-04-24T04:40:45;8.20;99.90
64843;DHT22;51310;52.198;5.422;2023-04-24T04:43:11;8.20;99.90
64843;DHT22;51310;52.198;5.422;2023-04-24T04:45:38;8.20;99.90
64843;DHT22;51310;52.198;5.422;2023-04-24T04:48:05;8.20;99.90
64843;DHT22;51310;52.198;5.422;2023-04-24T04:50:33;8.20;99.90
64843;DHT22;51310;52.198;5.422;2023-04-24T04:52:59;8.20;99.90
64843;DHT22;51310;52.198;5.422;2023-04-24T04:55:25;8.10;99.90
64843;DHT22;51310;52.198;5.422;2023-04-24T04:57:51;8.10;99.90
64843;DHT22;51310;52.198;5.422;2023-04-24T05:00:17;8.20;99.90
64843;DHT22;51310;52.198;5.422;2023-04-24T05:02:43;8.20;99.90
64843;DHT22;51310;52.198;5.422;2023-04-24T05:05:09;8.20;99.90
64843;DHT22;51310;52.198;5.422;2023-04-24T05:07:35;8.20;99.90
64843;DHT22;51310;52.198;5.422;2023-04-24T05:10:02;8.30;99.90
64843;DHT22;51310;52.198;5.422;2023-04-24T05:12:28;8.30;99.90
64843;DHT22;51310;52.198;5.422;2023-04-24T05:14:53;8.30;99.90
64843;DHT22;51310;52.198;5.422;2023-04-24T05:17:19;8.30;99.90
64843;DHT22;51310;52.198;5.422;2023-04-24T05:19:45;8.40;99.90
64843;DHT22;51310;52.198;5.422;2023-04-24T05:22:11;8.40;99.90
64843;DHT22;51310;52.198;5.422;2023-04-24T05:24:37;8.40;99.90
64843;DHT22;51310;52.198;5.422;2023-04-24T05:27:04;8.40;99.90
64843;DHT22;51310;52.198;5.422;2023-04-24T05:29:30;8.40;99.90
64843;DHT22;51310;52.198;5.422;2023-04-24T05:31:57;8.40;99.90
64843;DHT22;51310;52.198;5.422;2023-04-24T05:34:23;8.40;99.90
64843;DHT22;51310;52.198;5.422;2023-04-24T05:36:49;8.40;99.90
64843;DHT22;51310;52.198;5.422;2023-04-24T05:39:16;8.40;99.90
64843;DHT22;51310;52.198;5.422;2023-04-24T05:41:42;8.40;99.90
64843;DHT22;51310;52.198;5.422;2023-04-24T05:44:07;8.40;99.90
64843;DHT22;51310;52.198;5.422;2023-04-24T05:46:33;8.30;99.90
64843;DHT22;51310;52.198;5.422;2023-04-24T05:48:59;8.30;99.90
64843;DHT22;51310;52.198;5.422;2023-04-24T05:51:24;8.30;99.90
64843;DHT22;51310;52.198;5.422;2023-04-24T05:53:51;8.30;99.90
64843;DHT22;51310;52.198;5.422;2023-04-24T05:56:17;8.30;99.90
64843;DHT22;51310;52.198;5.422;2023-04-24T05:58:43;8.20;99.90
64843;DHT22;51310;52.198;5.422;2023-04-24T06:01:10;8.20;99.90
64843;DHT22;51310;52.198;5.422;2023-04-24T06:03:38;8.20;99.90
64843;DHT22;51310;52.198;5.422;2023-04-24T06:06:05;8.10;99.90
64843;DHT22;51310;52.198;5.422;2023-04-24T06:08:32;8.10;99.90
64843;DHT22;51310;52.198;5.422;2023-04-24T06:10:58;8.10;99.90
64843;DHT22;51310;52.198;5.422;2023-04-24T06:13:24;8.00;99.90
64843;DHT22;51310;52.198;5.422;2023-04-24T06:15:50;8.00;99.90
64843;DHT22;51310;52.198;5.422;2023-04-24T06:18:16;8.00;99.90
64843;DHT22;51310;52.198;5.422;2023-04-24T06:20:41;7.90;99.90
64843;DHT22;51310;52.198;5.422;2023-04-24T06:23:07;7.90;99.90
64843;DHT22;51310;52.198;5.422;2023-04-24T06:25:33;7.80;99.90
64843;DHT22;51310;52.198;5.422;2023-04-24T06:27:59;7.80;99.90
64843;DHT22;51310;52.198;5.422;2023-04-24T06:30:25;7.80;99.90
64843;DHT22;51310;52.198;5.422;2023-04-24T06:32:52;7.80;99.90
64843;DHT22;51310;52.198;5.422;2023-04-24T06:35:18;7.80;99.90
64843;DHT22;51310;52.198;5.422;2023-04-24T06:37:44;7.80;99.90
64843;DHT22;51310;52.198;5.422;2023-04-24T06:40:10;7.80;99.90
64843;DHT22;51310;52.198;5.422;2023-04-24T06:42:36;7.80;99.90
64843;DHT22;51310;52.198;5.422;2023-04-24T06:45:02;7.80;99.90
64843;DHT22;51310;52.198;5.422;2023-04-24T06:47:28;7.80;99.90
64843;DHT22;51310;52.198;5.422;2023-04-24T06:49:54;7.80;99.90
64843;DHT22;51310;52.198;5.422;2023-04-24T06:52:20;7.80;99.90
64843;DHT22;51310;52.198;5.422;2023-04-24T06:54:46;7.80;99.90
64843;DHT22;51310;52.198;5.422;2023-04-24T06:57:12;7.70;99.90
64843;DHT22;51310;52.198;5.422;2023-04-24T06:59:38;7.70;99.90
64843;DHT22;51310;52.198;5.422;2023-04-24T07:02:04;7.70;99.90
64843;DHT22;51310;52.198;5.422;2023-04-24T07:04:29;7.70;99.90
64843;DHT22;51310;52.198;5.422;2023-04-24T07:06:56;7.60;99.90
64843;DHT22;51310;52.198;5.422;2023-04-24T07:09:24;7.60;99.90
64843;DHT22;51310;52.198;5.422;2023-04-24T07:11:51;7.60;99.90
64843;DHT22;51310;52.198;5.422;2023-04-24T07:14:17;7.60;99.90
64843;DHT22;51310;52.198;5.422;2023-04-24T07:16:43;7.60;99.90
64843;DHT22;51310;52.198;5.422;2023-04-24T07:19:10;7.60;99.90
64843;DHT22;51310;52.198;5.422;2023-04-24T07:21:35;7.60;99.90
64843;DHT22;51310;52.198;5.422;2023-04-24T07:24:01;7.50;99.90
64843;DHT22;51310;52.198;5.422;2023-04-24T07:26:29;7.50;99.90
64843;DHT22;51310;52.198;5.422;2023-04-24T07:28:55;7.50;99.90
64843;DHT22;51310;52.198;5.422;2023-04-24T07:31:21;7.50;99.90
64843;DHT22;51310;52.198;5.422;2023-04-24T07:33:47;7.40;99.90
64843;DHT22;51310;52.198;5.422;2023-04-24T07:36:14;7.40;99.90
64843;DHT22;51310;52.198;5.422;2023-04-24T07:38:46;7.50;99.90
64843;DHT22;51310;52.198;5.422;2023-04-24T07:41:15;7.40;99.90
64843;DHT22;51310;52.198;5.422;2023-04-24T07:43:41;7.40;99.90
64843;DHT22;51310;52.198;5.422;2023-04-24T07:46:07;7.40;99.90
64843;DHT22;51310;52.198;5.422;2023-04-24T07:48:34;7.40;99.90
64843;DHT22;51310;52.198;5.422;2023-04-24T07:51:00;7.40;99.90
64843;DHT22;51310;52.198;5.422;2023-04-24T07:53:26;7.40;99.90
64843;DHT22;51310;52.198;5.422;2023-04-24T07:55:51;7.40;99.90
64843;DHT22;51310;52.198;5.422;2023-04-24T07:58:17;7.50;99.90
64843;DHT22;51310;52.198;5.422;2023-04-24T08:00:43;7.50;99.90
64843;DHT22;51310;52.198;5.422;2023-04-24T08:03:09;7.50;99.90
64843;DHT22;51310;52.198;5.422;2023-04-24T08:05:34;7.50;99.90
64843;DHT22;51310;52.198;5.422;2023-04-24T08:08:00;7.50;99.90
64843;DHT22;51310;52.198;5.422;2023-04-24T08:10:26;7.50;99.90
64843;DHT22;51310;52.198;5.422;2023-04-24T08:12:51;7.50;99.90
64843;DHT22;51310;52.198;5.422;2023-04-24T08:15:17;7.50;99.90
64843;DHT22;51310;52.198;5.422;2023-04-24T08:17:43;7.50;99.90
64843;DHT22;51310;52.198;5.422;2023-04-24T08:20:10;7.40;99.90
64843;DHT22;51310;52.198;5.422;2023-04-24T08:22:42;7.40;99.90
64843;DHT22;51310;52.198;5.422;2023-04-24T08:25:10;7.20;99.90
64843;DHT22;51310;52.198;5.422;2023-04-24T08:27:36;7.20;99.90
64843;DHT22;51310;52.198;5.422;2023-04-24T08:30:03;7.20;99.90
64843;DHT22;51310;52.198;5.422;2023-04-24T08:32:30;7.20;99.90
64843;DHT22;51310;52.198;5.422;2023-04-24T08:34:56;7.20;99.90
64843;DHT22;51310;52.198;5.422;2023-04-24T08:37:23;7.20;99.90
64843;DHT22;51310;52.198;5.422;2023-04-24T08:39:52;7.20;99.90
64843;DHT22;51310;52.198;5.422;2023-04-24T08:42:19;7.20;99.90
64843;DHT22;51310;52.198;5.422;2023-04-24T08:44:47;7.20;99.90
64843;DHT22;51310;52.198;5.422;2023-04-24T08:47:15;7.20;99.90
64843;DHT22;51310;52.198;5.422;2023-04-24T08:49:41;7.20;99.90
64843;DHT22;51310;52.198;5.422;2023-04-24T08:52:08;7.20;99.90
64843;DHT22;51310;52.198;5.422;2023-04-24T08:54:35;7.20;99.90
64843;DHT22;51310;52.198;5.422;2023-04-24T08:57:02;7.20;99.90
64843;DHT22;51310;52.198;5.422;2023-04-24T08:59:29;7.20;99.90
64843;DHT22;51310;52.198;5.422;2023-04-24T09:01:57;7.20;99.90
64843;DHT22;51310;52.198;5.422;2023-04-24T09:04:24;7.20;99.90
64843;DHT22;51310;52.198;5.422;2023-04-24T09:06:56;7.20;99.90
64843;DHT22;51310;52.198;5.422;2023-04-24T09:09:23;7.20;99.90
64843;DHT22;51310;52.198;5.422;2023-04-24T09:11:51;7.20;99.90
64843;DHT22;51310;52.198;5.422;2023-04-24T09:14:20;7.30;99.90
64843;DHT22;51310;52.198;5.422;2023-04-24T09:16:46;7.40;99.90
64843;DHT22;51310;52.198;5.422;2023-04-24T09:19:13;7.50;99.90
64843;DHT22;51310;52.198;5.422;2023-04-24T09:21:38;7.50;99.90
64843;DHT22;51310;52.198;5.422;2023-04-24T09:24:07;7.60;99.90
64843;DHT22;51310;52.198;5.422;2023-04-24T09:26:39;7.80;99.90
64843;DHT22;51310;52.198;5.422;2023-04-24T09:29:05;8.00;99.90
64843;DHT22;51310;52.198;5.422;2023-04-24T09:31:31;8.00;99.90
64843;DHT22;51310;52.198;5.422;2023-04-24T09:33:59;8.10;99.90
64843;DHT22;51310;52.198;5.422;2023-04-24T09:36:33;8.10;99.90
64843;DHT22;51310;52.198;5.422;2023-04-24T09:39:06;8.10;99.90
64843;DHT22;51310;52.198;5.422;2023-04-24T09:41:33;8.10;99.90
64843;DHT22;51310;52.198;5.422;2023-04-24T09:44:12;8.00;99.90
64843;DHT22;51310;52.198;5.422;2023-04-24T09:46:41;8.00;99.90
64843;DHT22;51310;52.198;5.422;2023-04-24T09:49:10;8.00;99.90
64843;DHT22;51310;52.198;5.422;2023-04-24T09:51:38;8.00;99.90
64843;DHT22;51310;52.198;5.422;2023-04-24T09:54:13;7.90;99.90
64843;DHT22;51310;52.198;5.422;2023-04-24T09:56:45;8.00;99.90
64843;DHT22;51310;52.198;5.422;2023-04-24T09:59:15;8.00;99.90
64843;DHT22;51310;52.198;5.422;2023-04-24T10:01:41;8.00;99.90
64843;DHT22;51310;52.198;5.422;2023-04-24T10:04:17;8.10;99.90
64843;DHT22;51310;52.198;5.422;2023-04-24T10:06:49;8.10;99.90
64843;DHT22;51310;52.198;5.422;2023-04-24T10:09:20;8.20;99.90
64843;DHT22;51310;52.198;5.422;2023-04-24T10:11:49;8.40;99.90
64843;DHT22;51310;52.198;5.422;2023-04-24T10:14:18;8.50;99.90
64843;DHT22;51310;52.198;5.422;2023-04-24T10:16:46;8.60;99.90
64843;DHT22;51310;52.198;5.422;2023-04-24T10:19:14;8.60;99.90
64843;DHT22;51310;52.198;5.422;2023-04-24T10:21:43;8.60;99.90
64843;DHT22;51310;52.198;5.422;2023-04-24T10:24:17;8.60;99.90
64843;DHT22;51310;52.198;5.422;2023-04-24T10:26:45;8.70;99.90
64843;DHT22;51310;52.198;5.422;2023-04-24T10:29:15;8.60;99.90
64843;DHT22;51310;52.198;5.422;2023-04-24T10:31:42;8.50;99.90
64843;DHT22;51310;52.198;5.422;2023-04-24T10:34:11;8.50;99.90
64843;DHT22;51310;52.198;5.422;2023-04-24T10:36:41;8.60;99.90
64843;DHT22;51310;52.198;5.422;2023-04-24T10:39:13;8.90;99.90
64843;DHT22;51310;52.198;5.422;2023-04-24T10:41:40;9.10;99.90
64843;DHT22;51310;52.198;5.422;2023-04-24T10:44:12;9.30;99.90
64843;DHT22;51310;52.198;5.422;2023-04-24T10:46:43;9.40;99.90
64843;DHT22;51310;52.198;5.422;2023-04-24T10:49:10;9.30;99.90
64843;DHT22;51310;52.198;5.422;2023-04-24T10:51:46;9.20;99.90
64843;DHT22;51310;52.198;5.422;2023-04-24T10:54:33;9.20;99.90
64843;DHT22;51310;52.198;5.422;2023-04-24T10:57:26;9.20;99.90
64843;DHT22;51310;52.198;5.422;2023-04-24T11:00:20;9.10;99.90
64843;DHT22;51310;52.198;5.422;2023-04-24T11:02:47;9.00;99.90
64843;DHT22;51310;52.198;5.422;2023-04-24T11:05:19;9.00;99.90
64843;DHT22;51310;52.198;5.422;2023-04-24T11:08:11;8.60;99.90
64843;DHT22;51310;52.198;5.422;2023-04-24T11:10:44;8.20;99.90
64843;DHT22;51310;52.198;5.422;2023-04-24T11:13:17;8.00;99.90
64843;DHT22;51310;52.198;5.422;2023-04-24T11:16:28;7.90;99.90
64843;DHT22;51310;52.198;5.422;2023-04-24T11:27:18;8.40;99.90
64843;DHT22;51310;52.198;5.422;2023-04-24T11:34:57;9.20;99.90
64843;DHT22;51310;52.198;5.422;2023-04-24T11:37:26;9.40;99.90
64843;DHT22;51310;52.198;5.422;2023-04-24T11:39:54;9.40;99.90
64843;DHT22;51310;52.198;5.422;2023-04-24T11:42:22;9.40;99.90
64843;DHT22;51310;52.198;5.422;2023-04-24T11:44:51;9.40;99.90
64843;DHT22;51310;52.198;5.422;2023-04-24T11:47:17;9.40;99.90
64843;DHT22;51310;52.198;5.422;2023-04-24T11:49:43;9.40;99.90
64843;DHT22;51310;52.198;5.422;2023-04-24T11:52:09;9.50;99.90
64843;DHT22;51310;52.198;5.422;2023-04-24T11:54:36;9.60;99.90
64843;DHT22;51310;52.198;5.422;2023-04-24T11:57:05;9.80;99.90
64843;DHT22;51310;52.198;5.422;2023-04-24T11:59:36;10.00;99.90
64843;DHT22;51310;52.198;5.422;2023-04-24T12:02:03;10.00;99.90
64843;DHT22;51310;52.198;5.422;2023-04-24T12:04:39;10.00;99.90
64843;DHT22;51310;52.198;5.422;2023-04-24T12:07:06;10.10;99.90
64843;DHT22;51310;52.198;5.422;2023-04-24T12:09:41;10.10;99.90
64843;DHT22;51310;52.198;5.422;2023-04-24T12:12:08;10.00;99.90
64843;DHT22;51310;52.198;5.422;2023-04-24T12:14:43;10.00;99.90
64843;DHT22;51310;52.198;5.422;2023-04-24T12:17:09;9.90;99.90
64843;DHT22;51310;52.198;5.422;2023-04-24T12:19:35;9.90;99.90
64843;DHT22;51310;52.198;5.422;2023-04-24T12:22:03;9.90;99.90
64843;DHT22;51310;52.198;5.422;2023-04-24T12:24:31;9.80;99.90
64843;DHT22;51310;52.198;5.422;2023-04-24T12:26:57;9.80;99.90
64843;DHT22;51310;52.198;5.422;2023-04-24T12:29:24;9.90;99.90
64843;DHT22;51310;52.198;5.422;2023-04-24T12:31:51;10.00;99.90
64843;DHT22;51310;52.198;5.422;2023-04-24T12:34:21;10.10;99.90
64843;DHT22;51310;52.198;5.422;2023-04-24T12:36:48;10.10;99.90
64843;DHT22;51310;52.198;5.422;2023-04-24T12:39:18;10.10;99.90
64843;DHT22;51310;52.198;5.422;2023-04-24T12:41:57;10.10;99.90
64843;DHT22;51310;52.198;5.422;2023-04-24T12:44:35;10.20;99.90
64843;DHT22;51310;52.198;5.422;2023-04-24T12:47:02;10.30;99.90
64843;DHT22;51310;52.198;5.422;2023-04-24T12:49:30;10.30;99.90
64843;DHT22;51310;52.198;5.422;2023-04-24T12:51:56;10.00;99.90
64843;DHT22;51310;52.198;5.422;2023-04-24T12:54:22;9.70;99.90
64843;DHT22;51310;52.198;5.422;2023-04-24T12:56:47;9.50;99.90
64843;DHT22;51310;52.198;5.422;2023-04-24T12:59:13;9.20;99.90
64843;DHT22;51310;52.198;5.422;2023-04-24T13:01:40;8.70;99.90
64843;DHT22;51310;52.198;5.422;2023-04-24T13:04:06;8.30;99.90
64843;DHT22;51310;52.198;5.422;2023-04-24T13:06:32;8.00;99.90
64843;DHT22;51310;52.198;5.422;2023-04-24T13:08:57;7.80;99.90
64843;DHT22;51310;52.198;5.422;2023-04-24T13:11:24;7.60;99.90
64843;DHT22;51310;52.198;5.422;2023-04-24T13:13:50;7.50;99.90
64843;DHT22;51310;52.198;5.422;2023-04-24T13:16:15;7.50;99.90
64843;DHT22;51310;52.198;5.422;2023-04-24T13:18:41;7.80;99.90
64843;DHT22;51310;52.198;5.422;2023-04-24T13:21:07;7.90;99.90
64843;DHT22;51310;52.198;5.422;2023-04-24T13:23:32;8.00;99.90
64843;DHT22;51310;52.198;5.422;2023-04-24T13:25:58;8.20;99.90
64843;DHT22;51310;52.198;5.422;2023-04-24T13:28:24;8.30;99.90
64843;DHT22;51310;52.198;5.422;2023-04-24T13:30:51;8.50;99.90
64843;DHT22;51310;52.198;5.422;2023-04-24T13:33:16;8.60;99.90
64843;DHT22;51310;52.198;5.422;2023-04-24T13:35:42;8.80;99.90
64843;DHT22;51310;52.198;5.422;2023-04-24T13:38:08;9.00;99.90
64843;DHT22;51310;52.198;5.422;2023-04-24T13:40:34;9.00;99.90
64843;DHT22;51310;52.198;5.422;2023-04-24T13:43:00;9.00;99.90
64843;DHT22;51310;52.198;5.422;2023-04-24T13:45:26;9.00;99.90
64843;DHT22;51310;52.198;5.422;2023-04-24T13:47:52;9.00;99.90
64843;DHT22;51310;52.198;5.422;2023-04-24T13:50:19;9.00;99.90
64843;DHT22;51310;52.198;5.422;2023-04-24T13:52:45;9.00;99.90
64843;DHT22;51310;52.198;5.422;2023-04-24T13:55:11;9.20;99.90
64843;DHT22;51310;52.198;5.422;2023-04-24T13:57:37;9.20;99.90
64843;DHT22;51310;52.198;5.422;2023-04-24T14:00:03;9.40;99.90
64843;DHT22;51310;52.198;5.422;2023-04-24T14:02:29;9.40;99.90
64843;DHT22;51310;52.198;5.422;2023-04-24T14:04:55;9.50;99.90
64843;DHT22;51310;52.198;5.422;2023-04-24T14:07:21;9.60;99.90
64843;DHT22;51310;52.198;5.422;2023-04-24T14:09:47;9.70;99.90
64843;DHT22;51310;52.198;5.422;2023-04-24T14:12:13;9.90;99.90
64843;DHT22;51310;52.198;5.422;2023-04-24T14:14:39;10.00;99.90
64843;DHT22;51310;52.198;5.422;2023-04-24T14:17:05;10.10;99.90
64843;DHT22;51310;52.198;5.422;2023-04-24T14:19:31;10.00;99.90
64843;DHT22;51310;52.198;5.422;2023-04-24T14:21:56;9.90;99.90
64843;DHT22;51310;52.198;5.422;2023-04-24T14:24:23;9.80;99.90
64843;DHT22;51310;52.198;5.422;2023-04-24T14:26:49;9.80;99.90
64843;DHT22;51310;52.198;5.422;2023-04-24T14:29:15;9.80;99.90
64843;DHT22;51310;52.198;5.422;2023-04-24T14:31:42;9.60;99.90
64843;DHT22;51310;52.198;5.422;2023-04-24T14:34:08;9.40;99.90
64843;DHT22;51310;52.198;5.422;2023-04-24T14:36:34;9.30;99.90
64843;DHT22;51310;52.198;5.422;2023-04-24T14:39:00;9.30;99.90
64843;DHT22;51310;52.198;5.422;2023-04-24T14:41:30;9.30;99.90
64843;DHT22;51310;52.198;5.422;2023-04-24T14:43:56;9.20;99.90
64843;DHT22;51310;52.198;5.422;2023-04-24T14:46:22;9.20;99.90
64843;DHT22;51310;52.198;5.422;2023-04-24T14:48:48;9.30;99.90
64843;DHT22;51310;52.198;5.422;2023-04-24T14:51:13;9.40;99.90
64843;DHT22;51310;52.198;5.422;2023-04-24T14:53:39;9.40;99.90
64843;DHT22;51310;52.198;5.422;2023-04-24T14:56:05;9.40;99.90
64843;DHT22;51310;52.198;5.422;2023-04-24T14:58:31;9.40;99.90
64843;DHT22;51310;52.198;5.422;2023-04-24T15:00:57;9.30;99.90
64843;DHT22;51310;52.198;5.422;2023-04-24T15:03:22;9.30;99.90
64843;DHT22;51310;52.198;5.422;2023-04-24T15:05:48;9.40;99.90
64843;DHT22;51310;52.198;5.422;2023-04-24T15:08:14;9.50;99.90
64843;DHT22;51310;52.198;5.422;2023-04-24T15:10:40;9.50;99.90
64843;DHT22;51310;52.198;5.422;2023-04-24T15:13:06;9.50;99.90
64843;DHT22;51310;52.198;5.422;2023-04-24T15:15:32;9.60;99.90
64843;DHT22;51310;52.198;5.422;2023-04-24T15:17:58;9.50;99.90
64843;DHT22;51310;52.198;5.422;2023-04-24T15:20:23;9.60;99.90
64843;DHT22;51310;52.198;5.422;2023-04-24T15:22:49;9.60;99.90
64843;DHT22;51310;52.198;5.422;2023-04-24T15:25:15;9.70;99.90
64843;DHT22;51310;52.198;5.422;2023-04-24T15:27:45;9.80;99.90
64843;DHT22;51310;52.198;5.422;2023-04-24T15:30:12;10.00;99.90
64843;DHT22;51310;52.198;5.422;2023-04-24T15:32:39;10.20;99.90
64843;DHT22;51310;52.198;5.422;2023-04-24T15:35:05;10.40;99.90
64843;DHT22;51310;52.198;5.422;2023-04-24T15:37:31;10.50;99.90
64843;DHT22;51310;52.198;5.422;2023-04-24T15:39:57;10.60;99.90
64843;DHT22;51310;52.198;5.422;2023-04-24T15:42:23;10.50;99.90
64843;DHT22;51310;52.198;5.422;2023-04-24T15:44:49;10.30;99.90
64843;DHT22;51310;52.198;5.422;2023-04-24T15:47:14;10.00;99.90
64843;DHT22;51310;52.198;5.422;2023-04-24T15:49:40;9.80;99.90
64843;DHT22;51310;52.198;5.422;2023-04-24T15:52:06;9.80;99.90
64843;DHT22;51310;52.198;5.422;2023-04-24T15:54:31;9.80;99.90
64843;DHT22;51310;52.198;5.422;2023-04-24T15:56:57;9.80;99.90